sensor_id;sensor_type;location;lat;lon;timestamp;P1;durP1;ratioP1;P2;durP2;ratioP2
46753;SDS011;32500;50.620;3.400;2022-12-24T00:01:33;77.53;;;52.47;;
46753;SDS011;32500;50.620;3.400;2022-12-24T00:03:59;76.97;;;52.22;;
46753;SDS011;32500;50.620;3.400;2022-12-24T00:06:25;76.35;;;52.20;;
46753;SDS011;32500;50.620;3.400;2022-12-24T00:08:51;82.07;;;52.63;;
46753;SDS011;32500;50.620;3.400;2022-12-24T00:11:17;77.53;;;52.42;;
46753;SDS011;32500;50.620;3.400;2022-12-24T00:13:43;81.43;;;52.90;;
46753;SDS011;32500;50.620;3.400;2022-12-24T00:16:09;77.53;;;52.83;;
46753;SDS011;32500;50.620;3.400;2022-12-24T00:18:34;78.07;;;52.63;;
46753;SDS011;32500;50.620;3.400;2022-12-24T00:21:00;77.25;;;51.65;;
46753;SDS011;32500;50.620;3.400;2022-12-24T00:23:28;79.18;;;52.35;;
46753;SDS011;32500;50.620;3.400;2022-12-24T00:25:54;75.32;;;52.05;;
46753;SDS011;32500;50.620;3.400;2022-12-24T00:28:20;79.22;;;52.00;;
46753;SDS011;32500;50.620;3.400;2022-12-24T00:30:46;78.70;;;52.78;;
46753;SDS011;32500;50.620;3.400;2022-12-24T00:33:11;78.05;;;52.90;;
46753;SDS011;32500;50.620;3.400;2022-12-24T00:35:37;76.35;;;51.80;;
46753;SDS011;32500;50.620;3.400;2022-12-24T00:38:04;79.45;;;51.85;;
46753;SDS011;32500;50.620;3.400;2022-12-24T00:40:30;77.57;;;52.45;;
46753;SDS011;32500;50.620;3.400;2022-12-24T00:42:56;78.97;;;52.05;;
46753;SDS011;32500;50.620;3.400;2022-12-24T00:45:22;76.00;;;51.55;;
46753;SDS011;32500;50.620;3.400;2022-12-24T00:47:48;78.72;;;52.33;;
46753;SDS011;32500;50.620;3.400;2022-12-24T00:50:14;75.60;;;52.53;;
46753;SDS011;32500;50.620;3.400;2022-12-24T00:52:40;74.45;;;51.88;;
46753;SDS011;32500;50.620;3.400;2022-12-24T00:55:06;77.65;;;52.10;;
46753;SDS011;32500;50.620;3.400;2022-12-24T00:57:32;77.03;;;52.08;;
46753;SDS011;32500;50.620;3.400;2022-12-24T00:59:58;74.70;;;51.90;;
46753;SDS011;32500;50.620;3.400;2022-12-24T01:02:24;74.22;;;52.28;;
46753;SDS011;32500;50.620;3.400;2022-12-24T01:04:50;78.57;;;52.00;;
46753;SDS011;32500;50.620;3.400;2022-12-24T01:07:34;79.40;;;52.00;;
46753;SDS011;32500;50.620;3.400;2022-12-24T01:10:00;78.25;;;52.20;;
46753;SDS011;32500;50.620;3.400;2022-12-24T01:12:26;75.50;;;51.63;;
46753;SDS011;32500;50.620;3.400;2022-12-24T01:14:52;76.82;;;51.53;;
46753;SDS011;32500;50.620;3.400;2022-12-24T01:17:17;75.60;;;51.90;;
46753;SDS011;32500;50.620;3.400;2022-12-24T01:19:43;78.53;;;52.55;;
46753;SDS011;32500;50.620;3.400;2022-12-24T01:22:09;75.40;;;51.53;;
46753;SDS011;32500;50.620;3.400;2022-12-24T01:24:35;77.18;;;52.05;;
46753;SDS011;32500;50.620;3.400;2022-12-24T01:27:00;76.28;;;52.00;;
46753;SDS011;32500;50.620;3.400;2022-12-24T01:29:26;74.72;;;51.40;;
46753;SDS011;32500;50.620;3.400;2022-12-24T01:31:51;77.97;;;51.97;;
46753;SDS011;32500;50.620;3.400;2022-12-24T01:34:17;77.97;;;51.60;;
46753;SDS011;32500;50.620;3.400;2022-12-24T01:36:43;77.13;;;52.17;;
46753;SDS011;32500;50.620;3.400;2022-12-24T01:39:08;77.25;;;51.75;;
46753;SDS011;32500;50.620;3.400;2022-12-24T01:41:34;75.90;;;51.67;;
46753;SDS011;32500;50.620;3.400;2022-12-24T01:46:51;76.35;;;52.00;;
46753;SDS011;32500;50.620;3.400;2022-12-24T01:49:26;76.47;;;51.97;;
46753;SDS011;32500;50.620;3.400;2022-12-24T01:51:53;75.47;;;51.95;;
46753;SDS011;32500;50.620;3.400;2022-12-24T01:54:29;76.72;;;51.35;;
46753;SDS011;32500;50.620;3.400;2022-12-24T01:57:08;79.28;;;52.40;;
46753;SDS011;32500;50.620;3.400;2022-12-24T01:59:40;76.50;;;51.65;;
46753;SDS011;32500;50.620;3.400;2022-12-24T02:02:10;75.30;;;51.80;;
46753;SDS011;32500;50.620;3.400;2022-12-24T02:04:45;76.07;;;51.30;;
46753;SDS011;32500;50.620;3.400;2022-12-24T02:07:13;76.10;;;50.92;;
46753;SDS011;32500;50.620;3.400;2022-12-24T02:09:39;76.03;;;52.17;;
46753;SDS011;32500;50.620;3.400;2022-12-24T02:12:05;77.10;;;51.92;;
46753;SDS011;32500;50.620;3.400;2022-12-24T02:14:31;77.60;;;51.13;;
46753;SDS011;32500;50.620;3.400;2022-12-24T02:39:26;73.68;;;51.35;;
46753;SDS011;32500;50.620;3.400;2022-12-24T02:42:01;75.60;;;51.53;;
46753;SDS011;32500;50.620;3.400;2022-12-24T02:44:51;77.20;;;51.80;;
46753;SDS011;32500;50.620;3.400;2022-12-24T02:47:21;73.40;;;51.75;;
46753;SDS011;32500;50.620;3.400;2022-12-24T02:49:49;73.68;;;51.80;;
46753;SDS011;32500;50.620;3.400;2022-12-24T02:52:34;76.68;;;51.53;;
46753;SDS011;32500;50.620;3.400;2022-12-24T02:55:13;73.78;;;51.58;;
46753;SDS011;32500;50.620;3.400;2022-12-24T03:00:41;74.70;;;51.38;;
46753;SDS011;32500;50.620;3.400;2022-12-24T03:06:22;76.30;;;51.65;;
46753;SDS011;32500;50.620;3.400;2022-12-24T03:09:05;73.47;;;51.67;;
46753;SDS011;32500;50.620;3.400;2022-12-24T03:11:47;75.65;;;51.58;;
46753;SDS011;32500;50.620;3.400;2022-12-24T03:14:19;75.30;;;51.70;;
46753;SDS011;32500;50.620;3.400;2022-12-24T03:16:46;73.55;;;51.53;;
46753;SDS011;32500;50.620;3.400;2022-12-24T03:19:13;75.65;;;51.88;;
46753;SDS011;32500;50.620;3.400;2022-12-24T03:21:40;74.47;;;51.40;;
46753;SDS011;32500;50.620;3.400;2022-12-24T03:24:07;76.97;;;51.92;;
46753;SDS011;32500;50.620;3.400;2022-12-24T03:26:34;77.60;;;51.75;;
46753;SDS011;32500;50.620;3.400;2022-12-24T03:29:03;76.30;;;51.40;;
46753;SDS011;32500;50.620;3.400;2022-12-24T03:31:46;73.70;;;51.60;;
46753;SDS011;32500;50.620;3.400;2022-12-24T03:34:14;74.30;;;51.13;;
46753;SDS011;32500;50.620;3.400;2022-12-24T03:36:41;75.38;;;51.67;;
46753;SDS011;32500;50.620;3.400;2022-12-24T03:39:07;75.82;;;51.50;;
46753;SDS011;32500;50.620;3.400;2022-12-24T03:41:34;74.03;;;51.72;;
46753;SDS011;32500;50.620;3.400;2022-12-24T03:44:00;74.05;;;51.30;;
46753;SDS011;32500;50.620;3.400;2022-12-24T03:46:26;74.22;;;51.10;;
46753;SDS011;32500;50.620;3.400;2022-12-24T03:48:52;75.78;;;51.28;;
46753;SDS011;32500;50.620;3.400;2022-12-24T03:51:20;76.18;;;51.22;;
46753;SDS011;32500;50.620;3.400;2022-12-24T03:53:46;74.43;;;51.67;;
46753;SDS011;32500;50.620;3.400;2022-12-24T03:56:13;75.63;;;51.50;;
46753;SDS011;32500;50.620;3.400;2022-12-24T03:58:39;74.38;;;51.15;;
46753;SDS011;32500;50.620;3.400;2022-12-24T04:01:04;73.07;;;50.78;;
46753;SDS011;32500;50.620;3.400;2022-12-24T04:03:30;75.32;;;51.65;;
46753;SDS011;32500;50.620;3.400;2022-12-24T04:06:00;76.03;;;51.50;;
46753;SDS011;32500;50.620;3.400;2022-12-24T04:08:25;74.95;;;50.75;;
46753;SDS011;32500;50.620;3.400;2022-12-24T04:10:51;73.45;;;50.60;;
46753;SDS011;32500;50.620;3.400;2022-12-24T04:13:17;74.38;;;51.17;;
46753;SDS011;32500;50.620;3.400;2022-12-24T04:15:42;72.45;;;51.40;;
46753;SDS011;32500;50.620;3.400;2022-12-24T04:18:08;77.15;;;51.33;;
46753;SDS011;32500;50.620;3.400;2022-12-24T04:20:33;76.88;;;51.45;;
46753;SDS011;32500;50.620;3.400;2022-12-24T04:22:59;74.18;;;51.58;;
46753;SDS011;32500;50.620;3.400;2022-12-24T04:25:24;75.15;;;51.72;;
46753;SDS011;32500;50.620;3.400;2022-12-24T04:27:50;74.97;;;51.55;;
46753;SDS011;32500;50.620;3.400;2022-12-24T04:30:16;73.72;;;51.47;;
46753;SDS011;32500;50.620;3.400;2022-12-24T04:32:41;75.40;;;51.22;;
46753;SDS011;32500;50.620;3.400;2022-12-24T04:35:07;74.97;;;51.20;;
46753;SDS011;32500;50.620;3.400;2022-12-24T04:37:33;77.93;;;51.65;;
46753;SDS011;32500;50.620;3.400;2022-12-24T04:39:59;74.28;;;51.58;;
46753;SDS011;32500;50.620;3.400;2022-12-24T04:42:25;73.75;;;51.78;;
46753;SDS011;32500;50.620;3.400;2022-12-24T04:44:50;74.20;;;51.47;;
46753;SDS011;32500;50.620;3.400;2022-12-24T04:47:16;71.90;;;51.42;;
46753;SDS011;32500;50.620;3.400;2022-12-24T04:49:41;73.00;;;50.92;;
46753;SDS011;32500;50.620;3.400;2022-12-24T04:52:07;78.70;;;51.83;;
46753;SDS011;32500;50.620;3.400;2022-12-24T04:54:33;74.18;;;51.38;;
46753;SDS011;32500;50.620;3.400;2022-12-24T04:56:59;72.35;;;51.08;;
46753;SDS011;32500;50.620;3.400;2022-12-24T04:59:24;75.35;;;51.00;;
46753;SDS011;32500;50.620;3.400;2022-12-24T05:01:50;74.22;;;51.45;;
46753;SDS011;32500;50.620;3.400;2022-12-24T05:04:16;77.15;;;51.45;;
46753;SDS011;32500;50.620;3.400;2022-12-24T05:06:41;75.95;;;51.40;;
46753;SDS011;32500;50.620;3.400;2022-12-24T05:09:07;74.85;;;51.70;;
46753;SDS011;32500;50.620;3.400;2022-12-24T05:11:33;76.30;;;51.13;;
46753;SDS011;32500;50.620;3.400;2022-12-24T05:13:58;74.38;;;51.25;;
46753;SDS011;32500;50.620;3.400;2022-12-24T05:16:24;76.47;;;51.60;;
46753;SDS011;32500;50.620;3.400;2022-12-24T05:18:50;75.28;;;51.08;;
46753;SDS011;32500;50.620;3.400;2022-12-24T05:21:17;75.97;;;51.78;;
46753;SDS011;32500;50.620;3.400;2022-12-24T05:23:45;74.50;;;51.47;;
46753;SDS011;32500;50.620;3.400;2022-12-24T05:26:34;73.15;;;51.35;;
46753;SDS011;32500;50.620;3.400;2022-12-24T05:29:01;75.40;;;51.50;;
46753;SDS011;32500;50.620;3.400;2022-12-24T05:31:29;75.85;;;51.10;;
46753;SDS011;32500;50.620;3.400;2022-12-24T05:33:55;74.00;;;51.30;;
46753;SDS011;32500;50.620;3.400;2022-12-24T05:36:22;75.88;;;51.45;;
46753;SDS011;32500;50.620;3.400;2022-12-24T05:38:48;75.60;;;51.53;;
46753;SDS011;32500;50.620;3.400;2022-12-24T05:41:14;75.70;;;51.08;;
46753;SDS011;32500;50.620;3.400;2022-12-24T05:43:39;75.20;;;51.67;;
46753;SDS011;32500;50.620;3.400;2022-12-24T05:46:06;73.32;;;51.78;;
46753;SDS011;32500;50.620;3.400;2022-12-24T05:48:34;73.07;;;51.08;;
46753;SDS011;32500;50.620;3.400;2022-12-24T05:51:03;73.18;;;51.22;;
46753;SDS011;32500;50.620;3.400;2022-12-24T05:53:30;72.22;;;51.40;;
46753;SDS011;32500;50.620;3.400;2022-12-24T05:56:01;74.78;;;51.65;;
46753;SDS011;32500;50.620;3.400;2022-12-24T05:58:31;73.97;;;51.65;;
46753;SDS011;32500;50.620;3.400;2022-12-24T06:00:57;75.72;;;51.20;;
46753;SDS011;32500;50.620;3.400;2022-12-24T06:03:24;74.75;;;51.35;;
46753;SDS011;32500;50.620;3.400;2022-12-24T06:05:56;74.55;;;51.42;;
46753;SDS011;32500;50.620;3.400;2022-12-24T06:08:26;74.85;;;52.47;;
46753;SDS011;32500;50.620;3.400;2022-12-24T06:10:56;81.95;;;51.70;;
46753;SDS011;32500;50.620;3.400;2022-12-24T06:13:24;75.05;;;51.42;;
46753;SDS011;32500;50.620;3.400;2022-12-24T06:15:53;79.32;;;51.55;;
46753;SDS011;32500;50.620;3.400;2022-12-24T06:18:20;73.55;;;51.45;;
46753;SDS011;32500;50.620;3.400;2022-12-24T06:20:48;75.70;;;51.30;;
46753;SDS011;32500;50.620;3.400;2022-12-24T06:23:18;75.63;;;51.50;;
46753;SDS011;32500;50.620;3.400;2022-12-24T06:25:44;74.18;;;51.47;;
46753;SDS011;32500;50.620;3.400;2022-12-24T06:28:11;76.75;;;51.88;;
46753;SDS011;32500;50.620;3.400;2022-12-24T06:30:36;73.25;;;50.92;;
46753;SDS011;32500;50.620;3.400;2022-12-24T06:33:02;74.03;;;51.42;;
46753;SDS011;32500;50.620;3.400;2022-12-24T06:35:29;78.65;;;51.63;;
46753;SDS011;32500;50.620;3.400;2022-12-24T06:37:55;74.57;;;51.40;;
46753;SDS011;32500;50.620;3.400;2022-12-24T06:40:21;75.70;;;51.42;;
46753;SDS011;32500;50.620;3.400;2022-12-24T06:42:47;78.60;;;51.75;;
46753;SDS011;32500;50.620;3.400;2022-12-24T06:45:12;73.43;;;51.20;;
46753;SDS011;32500;50.620;3.400;2022-12-24T06:47:38;74.18;;;51.28;;
46753;SDS011;32500;50.620;3.400;2022-12-24T06:50:04;74.50;;;51.25;;
46753;SDS011;32500;50.620;3.400;2022-12-24T06:52:30;74.78;;;50.88;;
46753;SDS011;32500;50.620;3.400;2022-12-24T06:54:56;75.28;;;51.92;;
46753;SDS011;32500;50.620;3.400;2022-12-24T06:57:21;72.93;;;50.88;;
46753;SDS011;32500;50.620;3.400;2022-12-24T06:59:47;77.57;;;51.83;;
46753;SDS011;32500;50.620;3.400;2022-12-24T07:02:12;80.18;;;51.58;;
46753;SDS011;32500;50.620;3.400;2022-12-24T07:04:38;76.43;;;52.30;;
46753;SDS011;32500;50.620;3.400;2022-12-24T07:07:04;76.07;;;51.60;;
46753;SDS011;32500;50.620;3.400;2022-12-24T07:09:29;77.97;;;52.05;;
46753;SDS011;32500;50.620;3.400;2022-12-24T07:11:55;72.82;;;51.45;;
46753;SDS011;32500;50.620;3.400;2022-12-24T07:14:21;78.35;;;51.78;;
46753;SDS011;32500;50.620;3.400;2022-12-24T07:16:47;75.07;;;51.53;;
46753;SDS011;32500;50.620;3.400;2022-12-24T07:19:13;74.35;;;51.72;;
46753;SDS011;32500;50.620;3.400;2022-12-24T07:21:39;75.43;;;52.20;;
46753;SDS011;32500;50.620;3.400;2022-12-24T07:24:05;73.03;;;51.25;;
46753;SDS011;32500;50.620;3.400;2022-12-24T07:26:31;76.47;;;51.45;;
46753;SDS011;32500;50.620;3.400;2022-12-24T07:28:57;75.88;;;51.85;;
46753;SDS011;32500;50.620;3.400;2022-12-24T07:31:22;75.00;;;51.60;;
46753;SDS011;32500;50.620;3.400;2022-12-24T07:33:48;81.38;;;51.22;;
46753;SDS011;32500;50.620;3.400;2022-12-24T07:36:17;73.85;;;51.80;;
46753;SDS011;32500;50.620;3.400;2022-12-24T07:38:45;74.53;;;51.40;;
46753;SDS011;32500;50.620;3.400;2022-12-24T07:41:11;78.22;;;51.83;;
46753;SDS011;32500;50.620;3.400;2022-12-24T07:43:36;77.82;;;51.47;;
46753;SDS011;32500;50.620;3.400;2022-12-24T07:46:02;73.75;;;51.13;;
46753;SDS011;32500;50.620;3.400;2022-12-24T07:48:28;76.15;;;51.55;;
46753;SDS011;32500;50.620;3.400;2022-12-24T07:50:55;75.03;;;51.83;;
46753;SDS011;32500;50.620;3.400;2022-12-24T07:53:21;73.50;;;51.28;;
46753;SDS011;32500;50.620;3.400;2022-12-24T07:55:47;82.55;;;51.50;;
46753;SDS011;32500;50.620;3.400;2022-12-24T07:58:13;75.20;;;51.33;;
46753;SDS011;32500;50.620;3.400;2022-12-24T08:00:38;76.80;;;51.55;;
46753;SDS011;32500;50.620;3.400;2022-12-24T08:03:04;76.82;;;51.45;;
46753;SDS011;32500;50.620;3.400;2022-12-24T08:05:33;78.57;;;51.88;;
46753;SDS011;32500;50.620;3.400;2022-12-24T08:08:00;73.82;;;51.25;;
46753;SDS011;32500;50.620;3.400;2022-12-24T08:10:26;73.95;;;51.72;;
46753;SDS011;32500;50.620;3.400;2022-12-24T08:12:51;74.68;;;51.45;;
46753;SDS011;32500;50.620;3.400;2022-12-24T08:15:17;72.18;;;51.25;;
46753;SDS011;32500;50.620;3.400;2022-12-24T08:17:43;81.55;;;51.42;;
46753;SDS011;32500;50.620;3.400;2022-12-24T08:20:09;75.28;;;51.03;;
46753;SDS011;32500;50.620;3.400;2022-12-24T08:22:35;78.63;;;51.42;;
46753;SDS011;32500;50.620;3.400;2022-12-24T08:25:01;75.32;;;51.38;;
46753;SDS011;32500;50.620;3.400;2022-12-24T08:27:27;81.65;;;51.30;;
46753;SDS011;32500;50.620;3.400;2022-12-24T08:29:52;75.30;;;50.92;;
46753;SDS011;32500;50.620;3.400;2022-12-24T08:32:18;78.03;;;51.58;;
46753;SDS011;32500;50.620;3.400;2022-12-24T08:34:44;74.55;;;51.38;;
46753;SDS011;32500;50.620;3.400;2022-12-24T08:37:09;75.63;;;51.47;;
46753;SDS011;32500;50.620;3.400;2022-12-24T08:39:35;76.72;;;51.28;;
46753;SDS011;32500;50.620;3.400;2022-12-24T08:42:00;74.60;;;51.47;;
46753;SDS011;32500;50.620;3.400;2022-12-24T08:44:26;77.32;;;51.63;;
46753;SDS011;32500;50.620;3.400;2022-12-24T08:46:51;77.07;;;51.53;;
46753;SDS011;32500;50.620;3.400;2022-12-24T08:49:17;80.10;;;51.45;;
46753;SDS011;32500;50.620;3.400;2022-12-24T08:51:43;77.68;;;51.47;;
46753;SDS011;32500;50.620;3.400;2022-12-24T08:54:08;78.20;;;51.58;;
46753;SDS011;32500;50.620;3.400;2022-12-24T08:56:34;77.20;;;51.55;;
46753;SDS011;32500;50.620;3.400;2022-12-24T08:59:00;73.97;;;51.00;;
46753;SDS011;32500;50.620;3.400;2022-12-24T09:01:26;74.75;;;51.53;;
46753;SDS011;32500;50.620;3.400;2022-12-24T09:03:52;77.13;;;51.47;;
46753;SDS011;32500;50.620;3.400;2022-12-24T09:06:17;76.97;;;52.17;;
46753;SDS011;32500;50.620;3.400;2022-12-24T09:08:43;77.28;;;51.65;;
46753;SDS011;32500;50.620;3.400;2022-12-24T09:11:10;76.68;;;51.47;;
46753;SDS011;32500;50.620;3.400;2022-12-24T09:13:38;79.53;;;51.33;;
46753;SDS011;32500;50.620;3.400;2022-12-24T09:16:04;77.43;;;51.72;;
46753;SDS011;32500;50.620;3.400;2022-12-24T09:18:31;76.00;;;51.60;;
46753;SDS011;32500;50.620;3.400;2022-12-24T09:20:57;74.30;;;51.17;;
46753;SDS011;32500;50.620;3.400;2022-12-24T09:23:24;77.45;;;51.60;;
46753;SDS011;32500;50.620;3.400;2022-12-24T09:25:50;79.30;;;51.90;;
46753;SDS011;32500;50.620;3.400;2022-12-24T09:28:16;75.13;;;51.40;;
46753;SDS011;32500;50.620;3.400;2022-12-24T09:30:41;74.60;;;51.60;;
46753;SDS011;32500;50.620;3.400;2022-12-24T09:33:07;78.05;;;51.17;;
46753;SDS011;32500;50.620;3.400;2022-12-24T09:35:33;76.53;;;52.00;;
46753;SDS011;32500;50.620;3.400;2022-12-24T09:38:01;75.22;;;51.55;;
46753;SDS011;32500;50.620;3.400;2022-12-24T09:40:35;77.78;;;51.90;;
46753;SDS011;32500;50.620;3.400;2022-12-24T09:43:04;76.22;;;51.78;;
46753;SDS011;32500;50.620;3.400;2022-12-24T09:45:37;78.72;;;51.65;;
46753;SDS011;32500;50.620;3.400;2022-12-24T09:48:16;74.65;;;52.10;;
46753;SDS011;32500;50.620;3.400;2022-12-24T09:55:55;76.35;;;51.90;;
46753;SDS011;32500;50.620;3.400;2022-12-24T09:58:27;74.38;;;51.58;;
46753;SDS011;32500;50.620;3.400;2022-12-24T10:00:55;81.05;;;52.65;;
46753;SDS011;32500;50.620;3.400;2022-12-24T10:03:21;76.78;;;52.15;;
46753;SDS011;32500;50.620;3.400;2022-12-24T10:06:06;74.43;;;50.90;;
46753;SDS011;32500;50.620;3.400;2022-12-24T10:08:51;75.35;;;52.28;;
46753;SDS011;32500;50.620;3.400;2022-12-24T10:25:42;83.10;;;52.30;;
46753;SDS011;32500;50.620;3.400;2022-12-24T10:28:17;76.05;;;51.45;;
46753;SDS011;32500;50.620;3.400;2022-12-24T10:30:46;83.35;;;51.88;;
46753;SDS011;32500;50.620;3.400;2022-12-24T10:33:28;77.57;;;51.85;;
46753;SDS011;32500;50.620;3.400;2022-12-24T10:35:59;77.65;;;52.28;;
46753;SDS011;32500;50.620;3.400;2022-12-24T10:38:25;79.05;;;51.85;;
46753;SDS011;32500;50.620;3.400;2022-12-24T10:40:52;79.55;;;52.08;;
46753;SDS011;32500;50.620;3.400;2022-12-24T10:43:22;77.65;;;52.50;;
46753;SDS011;32500;50.620;3.400;2022-12-24T10:45:50;77.45;;;52.45;;
46753;SDS011;32500;50.620;3.400;2022-12-24T10:48:36;81.65;;;53.78;;
46753;SDS011;32500;50.620;3.400;2022-12-24T10:51:27;80.00;;;53.40;;
46753;SDS011;32500;50.620;3.400;2022-12-24T10:54:17;84.82;;;55.38;;
46753;SDS011;32500;50.620;3.400;2022-12-24T10:56:45;81.78;;;54.80;;
46753;SDS011;32500;50.620;3.400;2022-12-24T10:59:23;83.40;;;56.20;;
46753;SDS011;32500;50.620;3.400;2022-12-24T11:01:53;83.85;;;55.78;;
46753;SDS011;32500;50.620;3.400;2022-12-24T11:04:21;85.60;;;56.85;;
46753;SDS011;32500;50.620;3.400;2022-12-24T11:07:02;84.15;;;55.05;;
46753;SDS011;32500;50.620;3.400;2022-12-24T11:09:31;85.80;;;56.65;;
46753;SDS011;32500;50.620;3.400;2022-12-24T11:11:59;91.65;;;61.08;;
46753;SDS011;32500;50.620;3.400;2022-12-24T11:14:28;86.20;;;57.85;;
46753;SDS011;32500;50.620;3.400;2022-12-24T11:19:30;84.60;;;58.35;;
46753;SDS011;32500;50.620;3.400;2022-12-24T11:22:03;89.30;;;58.22;;
46753;SDS011;32500;50.620;3.400;2022-12-24T11:24:33;82.15;;;56.13;;
46753;SDS011;32500;50.620;3.400;2022-12-24T11:32:42;89.78;;;60.22;;
46753;SDS011;32500;50.620;3.400;2022-12-24T11:35:20;90.68;;;59.05;;
46753;SDS011;32500;50.620;3.400;2022-12-24T11:38:33;87.13;;;58.95;;
46753;SDS011;32500;50.620;3.400;2022-12-24T11:43:04;85.57;;;57.28;;
46753;SDS011;32500;50.620;3.400;2022-12-24T11:45:31;89.60;;;57.63;;
46753;SDS011;32500;50.620;3.400;2022-12-24T11:47:59;89.25;;;58.15;;
46753;SDS011;32500;50.620;3.400;2022-12-24T12:00:51;86.50;;;56.30;;
46753;SDS011;32500;50.620;3.400;2022-12-24T12:03:45;88.05;;;56.00;;
46753;SDS011;32500;50.620;3.400;2022-12-24T12:11:49;86.47;;;55.58;;
46753;SDS011;32500;50.620;3.400;2022-12-24T12:19:31;82.13;;;55.38;;
46753;SDS011;32500;50.620;3.400;2022-12-24T12:22:12;84.53;;;55.53;;
46753;SDS011;32500;50.620;3.400;2022-12-24T12:24:59;84.47;;;55.53;;
46753;SDS011;32500;50.620;3.400;2022-12-24T12:30:02;86.45;;;55.85;;
46753;SDS011;32500;50.620;3.400;2022-12-24T12:32:34;85.88;;;55.10;;
46753;SDS011;32500;50.620;3.400;2022-12-24T12:35:33;85.45;;;55.75;;
46753;SDS011;32500;50.620;3.400;2022-12-24T12:38:10;83.78;;;55.53;;
46753;SDS011;32500;50.620;3.400;2022-12-24T12:46:24;83.38;;;55.20;;
46753;SDS011;32500;50.620;3.400;2022-12-24T12:51:55;79.80;;;54.95;;
46753;SDS011;32500;50.620;3.400;2022-12-24T12:56:55;82.45;;;55.25;;
46753;SDS011;32500;50.620;3.400;2022-12-24T12:59:37;84.43;;;55.10;;
46753;SDS011;32500;50.620;3.400;2022-12-24T13:10:22;81.28;;;54.47;;
46753;SDS011;32500;50.620;3.400;2022-12-24T13:18:58;81.10;;;54.13;;
46753;SDS011;32500;50.620;3.400;2022-12-24T13:21:26;79.85;;;54.15;;
46753;SDS011;32500;50.620;3.400;2022-12-24T13:24:06;83.13;;;54.15;;
46753;SDS011;32500;50.620;3.400;2022-12-24T13:26:59;80.82;;;54.25;;
46753;SDS011;32500;50.620;3.400;2022-12-24T13:35:01;81.82;;;54.28;;
46753;SDS011;32500;50.620;3.400;2022-12-24T13:37:48;80.28;;;53.70;;
46753;SDS011;32500;50.620;3.400;2022-12-24T13:42:47;80.47;;;53.95;;
46753;SDS011;32500;50.620;3.400;2022-12-24T13:47:54;80.00;;;53.72;;
46753;SDS011;32500;50.620;3.400;2022-12-24T13:50:21;81.68;;;54.05;;
46753;SDS011;32500;50.620;3.400;2022-12-24T13:52:53;79.35;;;53.22;;
46753;SDS011;32500;50.620;3.400;2022-12-24T13:55:19;80.38;;;53.55;;
46753;SDS011;32500;50.620;3.400;2022-12-24T13:57:56;76.45;;;53.10;;
46753;SDS011;32500;50.620;3.400;2022-12-24T14:03:15;77.70;;;53.60;;
46753;SDS011;32500;50.620;3.400;2022-12-24T14:05:50;82.10;;;53.85;;
46753;SDS011;32500;50.620;3.400;2022-12-24T14:08:30;78.22;;;53.65;;
46753;SDS011;32500;50.620;3.400;2022-12-24T14:21:35;77.13;;;52.90;;
46753;SDS011;32500;50.620;3.400;2022-12-24T14:24:09;78.25;;;53.22;;
46753;SDS011;32500;50.620;3.400;2022-12-24T14:26:43;79.53;;;53.08;;
46753;SDS011;32500;50.620;3.400;2022-12-24T14:29:29;79.93;;;52.58;;
46753;SDS011;32500;50.620;3.400;2022-12-24T14:31:58;77.55;;;52.92;;
46753;SDS011;32500;50.620;3.400;2022-12-24T14:34:28;78.53;;;53.13;;
46753;SDS011;32500;50.620;3.400;2022-12-24T14:36:54;78.88;;;53.03;;
46753;SDS011;32500;50.620;3.400;2022-12-24T14:39:30;78.97;;;53.30;;
46753;SDS011;32500;50.620;3.400;2022-12-24T14:47:38;78.72;;;53.05;;
46753;SDS011;32500;50.620;3.400;2022-12-24T14:53:16;80.40;;;52.90;;
46753;SDS011;32500;50.620;3.400;2022-12-24T14:56:06;75.15;;;52.42;;
46753;SDS011;32500;50.620;3.400;2022-12-24T14:58:40;75.60;;;52.23;;
46753;SDS011;32500;50.620;3.400;2022-12-24T15:01:19;76.18;;;52.88;;
46753;SDS011;32500;50.620;3.400;2022-12-24T15:06:53;74.63;;;52.60;;
46753;SDS011;32500;50.620;3.400;2022-12-24T15:09:22;76.47;;;52.42;;
46753;SDS011;32500;50.620;3.400;2022-12-24T15:11:54;76.07;;;52.58;;
46753;SDS011;32500;50.620;3.400;2022-12-24T15:14:24;75.18;;;52.38;;
46753;SDS011;32500;50.620;3.400;2022-12-24T15:19:32;80.07;;;53.08;;
46753;SDS011;32500;50.620;3.400;2022-12-24T15:22:02;75.50;;;52.38;;
46753;SDS011;32500;50.620;3.400;2022-12-24T15:24:33;75.38;;;52.35;;
46753;SDS011;32500;50.620;3.400;2022-12-24T15:27:01;116.82;;;76.63;;
46753;SDS011;32500;50.620;3.400;2022-12-24T15:29:41;146.93;;;98.70;;
46753;SDS011;32500;50.620;3.400;2022-12-24T15:32:09;129.03;;;84.50;;
46753;SDS011;32500;50.620;3.400;2022-12-24T15:34:41;119.05;;;80.53;;
46753;SDS011;32500;50.620;3.400;2022-12-24T15:37:12;118.60;;;76.10;;
46753;SDS011;32500;50.620;3.400;2022-12-24T15:39:56;109.53;;;69.35;;
46753;SDS011;32500;50.620;3.400;2022-12-24T15:42:42;95.63;;;66.05;;
46753;SDS011;32500;50.620;3.400;2022-12-24T15:47:59;100.05;;;63.97;;
46753;SDS011;32500;50.620;3.400;2022-12-24T15:50:42;95.40;;;62.88;;
46753;SDS011;32500;50.620;3.400;2022-12-24T15:53:16;95.38;;;62.15;;
46753;SDS011;32500;50.620;3.400;2022-12-24T15:56:12;96.10;;;61.95;;
46753;SDS011;32500;50.620;3.400;2022-12-24T15:59:10;88.35;;;60.38;;
46753;SDS011;32500;50.620;3.400;2022-12-24T16:01:37;94.72;;;59.90;;
46753;SDS011;32500;50.620;3.400;2022-12-24T16:04:10;94.95;;;60.35;;
46753;SDS011;32500;50.620;3.400;2022-12-24T16:07:00;90.75;;;60.20;;
46753;SDS011;32500;50.620;3.400;2022-12-24T16:09:40;100.47;;;62.45;;
46753;SDS011;32500;50.620;3.400;2022-12-24T16:12:18;108.15;;;67.15;;
46753;SDS011;32500;50.620;3.400;2022-12-24T16:14:54;95.15;;;60.28;;
46753;SDS011;32500;50.620;3.400;2022-12-24T16:17:24;96.10;;;59.38;;
46753;SDS011;32500;50.620;3.400;2022-12-24T16:19:52;85.50;;;56.92;;
46753;SDS011;32500;50.620;3.400;2022-12-24T16:22:23;92.35;;;57.97;;
46753;SDS011;32500;50.620;3.400;2022-12-24T16:24:55;85.43;;;56.63;;
46753;SDS011;32500;50.620;3.400;2022-12-24T16:27:24;84.25;;;56.47;;
46753;SDS011;32500;50.620;3.400;2022-12-24T16:29:50;82.55;;;56.60;;
46753;SDS011;32500;50.620;3.400;2022-12-24T16:34:57;90.25;;;56.83;;
46753;SDS011;32500;50.620;3.400;2022-12-24T16:37:25;84.03;;;56.65;;
46753;SDS011;32500;50.620;3.400;2022-12-24T16:39:51;84.97;;;56.60;;
46753;SDS011;32500;50.620;3.400;2022-12-24T16:42:17;86.82;;;56.00;;
46753;SDS011;32500;50.620;3.400;2022-12-24T16:45:01;90.65;;;56.92;;
46753;SDS011;32500;50.620;3.400;2022-12-24T16:47:28;83.93;;;56.08;;
46753;SDS011;32500;50.620;3.400;2022-12-24T16:49:57;85.10;;;56.35;;
46753;SDS011;32500;50.620;3.400;2022-12-24T16:52:27;85.88;;;56.55;;
46753;SDS011;32500;50.620;3.400;2022-12-24T16:54:54;86.30;;;55.85;;
46753;SDS011;32500;50.620;3.400;2022-12-24T16:57:21;84.78;;;56.20;;
46753;SDS011;32500;50.620;3.400;2022-12-24T16:59:48;85.97;;;55.58;;
46753;SDS011;32500;50.620;3.400;2022-12-24T17:02:15;83.20;;;56.33;;
46753;SDS011;32500;50.620;3.400;2022-12-24T17:04:42;82.35;;;55.17;;
46753;SDS011;32500;50.620;3.400;2022-12-24T17:07:09;83.97;;;55.90;;
46753;SDS011;32500;50.620;3.400;2022-12-24T17:09:40;82.40;;;55.78;;